Time;durP1;ratioP1;P1;durP2;ratioP2;P2;SDS_P1;SDS_P2;PMS_P1;PMS_P2;Temp;Humidity;BMP_temperature;BMP_pressure;BME280_temperature;BME280_humidity;BME280_pressure;Samples;Min_cycle;Max_cycle;Signal;HPM_P1;HPM_P2
2022/04/09 00:02:09;;;;;;;10.07;2.10;;;4.40;99.90;;;;;;5016723;28;20178;-79
2022/04/09 00:04:34;;;;;;;8.63;2.37;;;4.40;99.90;;;;;;5016794;28;20220;-79
2022/04/09 00:07:00;;;;;;;12.13;2.07;;;4.40;99.90;;;;;;5016889;28;20205;-79
2022/04/09 00:09:26;;;;;;;15.00;2.27;;;4.40;99.90;;;;;;5016749;28;20189;-79
2022/04/09 00:11:51;;;;;;;13.17;2.23;;;4.30;99.90;;;;;;5016660;28;20206;-80
2022/04/09 00:14:17;;;;;;;14.17;2.30;;;4.30;99.90;;;;;;5016476;28;20174;-79
2022/04/09 00:16:43;;;;;;;12.90;2.67;;;4.30;99.90;;;;;;5016598;28;20178;-80
2022/04/09 00:19:09;;;;;;;9.63;1.80;;;4.30;99.90;;;;;;5015975;28;20210;-79
2022/04/09 00:21:35;;;;;;;9.13;2.20;;;4.30;99.90;;;;;;5016421;28;20544;-79
2022/04/09 00:24:00;;;;;;;11.53;2.17;;;4.30;99.90;;;;;;5016406;28;20517;-79
2022/04/09 00:26:26;;;;;;;12.63;2.03;;;4.30;99.90;;;;;;5016493;28;20230;-79
2022/04/09 00:28:52;;;;;;;9.57;2.57;;;4.30;99.90;;;;;;5016563;28;20180;-80
2022/04/09 00:31:18;;;;;;;10.73;1.77;;;4.30;99.90;;;;;;5015577;28;20232;-80
2022/04/09 00:33:44;;;;;;;11.33;2.47;;;4.30;99.90;;;;;;5016621;28;20177;-79
2022/04/09 00:36:09;;;;;;;12.03;2.27;;;4.30;99.90;;;;;;5016396;28;20657;-80
2022/04/09 00:38:35;;;;;;;11.43;2.60;;;4.30;99.90;;;;;;5016391;28;20189;-80
2022/04/09 00:41:01;;;;;;;16.07;2.20;;;4.20;99.90;;;;;;5016150;28;20232;-81
2022/04/09 00:43:26;;;;;;;9.43;2.20;;;4.10;99.90;;;;;;5015964;28;20181;-81
2022/04/09 00:45:52;;;;;;;14.13;2.40;;;4.10;99.90;;;;;;5016141;28;20193;-80
2022/04/09 00:48:21;;;;;;;14.70;2.20;;;4.20;99.90;;;;;;5016837;28;20180;-80
2022/04/09 00:50:48;;;;;;;11.03;2.33;;;4.10;99.90;;;;;;5016666;28;20242;-80
2022/04/09 00:53:20;;;;;;;7.13;2.00;;;4.10;99.90;;;;;;5016596;28;20568;-80
2022/04/09 00:58:34;;;;;;;25.17;2.60;;;4.00;99.90;;;;;;5035171;28;20169;-80
2022/04/09 01:01:02;;;;;;;15.00;2.47;;;4.00;99.90;;;;;;5016475;28;20197;-79
2022/04/09 01:03:28;;;;;;;9.87;1.87;;;4.00;99.90;;;;;;5017445;28;20209;-80
2022/04/09 01:05:55;;;;;;;8.50;1.83;;;4.00;99.90;;;;;;5017930;28;20642;-80
2022/04/09 01:08:20;;;;;;;9.63;2.53;;;4.00;99.90;;;;;;5017563;28;20193;-81
2022/04/09 01:10:47;;;;;;;18.33;2.40;;;4.00;99.90;;;;;;5017223;28;20288;-80
2022/04/09 01:13:14;;;;;;;13.93;2.23;;;4.10;99.90;;;;;;5017742;28;20597;-79
2022/04/09 01:15:40;;;;;;;9.57;2.60;;;4.10;99.90;;;;;;5018086;28;20722;-80
2022/04/09 01:18:06;;;;;;;12.97;2.13;;;4.10;99.90;;;;;;5017948;28;20174;-80
2022/04/09 01:20:32;;;;;;;13.67;2.03;;;4.10;99.90;;;;;;5017884;28;20211;-80
2022/04/09 01:22:57;;;;;;;14.30;2.67;;;4.10;99.90;;;;;;5018181;28;20233;-81
2022/04/09 01:25:23;;;;;;;12.10;2.80;;;4.20;99.90;;;;;;5017848;28;20260;-79
2022/04/09 01:27:49;;;;;;;12.63;2.30;;;4.20;99.90;;;;;;5016126;28;20344;-80
2022/04/09 01:30:16;;;;;;;13.27;2.00;;;4.20;99.90;;;;;;5015604;28;20293;-80
2022/04/09 01:32:42;;;;;;;14.77;2.87;;;4.10;99.90;;;;;;5015637;28;20257;-80
2022/04/09 01:35:08;;;;;;;17.97;2.30;;;4.10;99.90;;;;;;5016095;28;20198;-81
2022/04/09 01:37:34;;;;;;;9.60;2.07;;;4.00;99.90;;;;;;5016189;28;20185;-80
2022/04/09 01:39:59;;;;;;;20.10;2.83;;;3.90;99.90;;;;;;5015717;28;20665;-80
2022/04/09 01:42:26;;;;;;;11.07;2.30;;;4.00;99.90;;;;;;5015498;28;20543;-79
2022/04/09 01:44:55;;;;;;;5.97;2.20;;;3.90;99.90;;;;;;5015445;28;20609;-80
2022/04/09 01:47:21;;;;;;;10.73;1.80;;;3.90;99.90;;;;;;5014832;28;20247;-80
2022/04/09 01:49:48;;;;;;;14.23;2.00;;;4.00;99.90;;;;;;4998908;28;20245;-80
2022/04/09 01:52:13;;;;;;;8.93;2.30;;;3.90;99.90;;;;;;5014782;28;20405;-79
2022/04/09 01:54:39;;;;;;;12.63;2.10;;;3.80;99.90;;;;;;5014761;28;20653;-80
2022/04/09 01:57:05;;;;;;;11.90;2.20;;;3.80;99.90;;;;;;5014698;28;20180;-80
2022/04/09 01:59:31;;;;;;;11.53;2.00;;;3.80;99.90;;;;;;5014574;28;20205;-81
2022/04/09 02:01:57;;;;;;;7.87;2.90;;;3.70;99.90;;;;;;5014162;28;20185;-80
2022/04/09 02:04:23;;;;;;;15.40;2.30;;;3.80;99.90;;;;;;5014272;28;20181;-80
2022/04/09 02:06:50;;;;;;;7.97;2.40;;;3.80;99.90;;;;;;5014180;28;20205;-80
2022/04/09 02:09:16;;;;;;;14.37;2.20;;;3.80;99.90;;;;;;5014114;28;20682;-80
2022/04/09 02:11:42;;;;;;;7.47;2.10;;;3.90;99.90;;;;;;5014171;28;20187;-80
2022/04/09 02:14:10;;;;;;;12.37;2.10;;;4.00;99.90;;;;;;5014143;28;20173;-80
2022/04/09 02:16:36;;;;;;;5.80;1.90;;;3.90;99.90;;;;;;5014205;28;20184;-80
2022/04/09 02:19:03;;;;;;;14.30;2.17;;;4.00;99.90;;;;;;5013478;28;22056;-80
2022/04/09 02:21:29;;;;;;;15.10;2.17;;;4.00;99.90;;;;;;5013417;28;20180;-79
2022/04/09 02:23:54;;;;;;;12.90;2.30;;;4.00;99.90;;;;;;5014436;28;20185;-79
2022/04/09 02:26:20;;;;;;;11.07;2.10;;;4.00;99.90;;;;;;5014279;28;20211;-80
2022/04/09 02:28:47;;;;;;;9.63;2.23;;;4.00;99.90;;;;;;5014354;28;20315;-80
2022/04/09 02:31:17;;;;;;;8.40;1.90;;;3.90;99.90;;;;;;5013690;28;20170;-80
2022/04/09 02:33:43;;;;;;;14.20;2.27;;;4.00;99.90;;;;;;5014348;28;20174;-80
2022/04/09 02:36:12;;;;;;;12.33;1.90;;;4.00;99.90;;;;;;5014253;28;20184;-80
2022/04/09 02:38:39;;;;;;;12.50;2.07;;;4.10;99.90;;;;;;5014361;28;20180;-80
2022/04/09 02:41:06;;;;;;;12.17;2.77;;;4.10;99.90;;;;;;5014033;28;20201;-81
2022/04/09 02:43:32;;;;;;;10.03;1.83;;;4.20;99.90;;;;;;5014736;28;20177;-79
2022/04/09 02:45:58;;;;;;;18.33;2.60;;;4.20;99.90;;;;;;5014101;28;20562;-79
2022/04/09 02:48:23;;;;;;;14.20;2.07;;;4.20;99.90;;;;;;5014688;28;20169;-80
2022/04/09 02:50:49;;;;;;;10.63;1.73;;;4.20;99.90;;;;;;5014520;28;20573;-80
2022/04/09 02:53:15;;;;;;;13.50;2.20;;;4.20;99.90;;;;;;5014636;28;20176;-79
2022/04/09 02:55:41;;;;;;;6.57;2.20;;;4.20;99.90;;;;;;5014684;28;20594;-79
2022/04/09 02:58:07;;;;;;;8.33;1.67;;;4.20;99.90;;;;;;5014811;28;20615;-78
2022/04/09 03:00:32;;;;;;;10.80;2.10;;;4.20;99.90;;;;;;5014430;28;20782;-78
2022/04/09 03:02:58;;;;;;;10.67;2.20;;;4.20;99.90;;;;;;5014201;28;20201;-79
2022/04/09 03:05:24;;;;;;;11.93;2.50;;;4.20;99.90;;;;;;5014698;28;20553;-79
2022/04/09 03:07:50;;;;;;;7.50;1.60;;;4.20;99.90;;;;;;5014515;28;20658;-79
2022/04/09 03:10:15;;;;;;;8.20;2.07;;;4.20;99.90;;;;;;5014477;28;20208;-80
2022/04/09 03:12:45;;;;;;;16.97;2.13;;;4.30;99.90;;;;;;5014342;28;20231;-79
2022/04/09 03:15:13;;;;;;;11.03;1.87;;;4.30;99.90;;;;;;5014511;28;20177;-80
2022/04/09 03:17:38;;;;;;;6.77;1.57;;;4.30;99.90;;;;;;5014216;28;20185;-79
2022/04/09 03:20:06;;;;;;;10.33;2.53;;;4.30;99.90;;;;;;5014296;28;20225;-80
2022/04/09 03:22:31;;;;;;;12.93;2.40;;;4.30;99.90;;;;;;5014206;28;20324;-79
2022/04/09 03:25:02;;;;;;;4.63;1.90;;;4.30;99.90;;;;;;5014260;28;20264;-79
2022/04/09 03:27:28;;;;;;;9.10;2.00;;;4.30;99.90;;;;;;5014561;28;20212;-79
2022/04/09 03:29:55;;;;;;;18.77;2.47;;;4.30;99.90;;;;;;5013748;28;20198;-79
2022/04/09 03:32:21;;;;;;;9.73;2.20;;;4.40;99.90;;;;;;5014681;28;20174;-79
2022/04/09 03:34:48;;;;;;;9.57;2.37;;;4.30;99.90;;;;;;5017744;28;20263;-79
2022/04/09 03:37:14;;;;;;;10.77;2.00;;;4.30;99.90;;;;;;5017871;28;20182;-79
2022/04/09 03:39:41;;;;;;;9.83;2.00;;;4.30;99.90;;;;;;5017672;28;20288;-79
2022/04/09 03:42:07;;;;;;;10.57;2.40;;;4.30;99.90;;;;;;5017515;28;20178;-79
2022/04/09 03:44:33;;;;;;;11.73;1.90;;;4.40;99.90;;;;;;5017778;28;20184;-80
2022/04/09 03:47:00;;;;;;;9.30;2.03;;;4.30;99.90;;;;;;5017008;28;20208;-79
2022/04/09 03:49:28;;;;;;;11.17;1.90;;;4.30;99.90;;;;;;5017183;28;20194;-80
2022/04/09 03:51:54;;;;;;;8.83;2.37;;;4.40;99.90;;;;;;5016919;28;20173;-79
2022/04/09 03:54:19;;;;;;;11.80;2.30;;;4.30;99.90;;;;;;5017131;28;20203;-78
2022/04/09 03:56:45;;;;;;;14.33;2.00;;;4.30;99.90;;;;;;5018063;28;20177;-81
2022/04/09 03:59:11;;;;;;;12.50;2.00;;;4.30;99.90;;;;;;5021012;28;20287;-80
2022/04/09 04:01:37;;;;;;;4.43;1.83;;;4.20;99.90;;;;;;5020454;28;20264;-79
2022/04/09 04:04:03;;;;;;;8.60;1.90;;;4.20;99.90;;;;;;5020120;28;20639;-79
2022/04/09 04:06:29;;;;;;;4.10;1.77;;;4.20;99.90;;;;;;5020204;28;20662;-79
2022/04/09 04:08:58;;;;;;;8.63;2.10;;;4.20;99.90;;;;;;5019606;28;20185;-80
2022/04/09 04:11:24;;;;;;;12.83;1.87;;;4.20;99.90;;;;;;5020117;28;20566;-81
2022/04/09 04:13:50;;;;;;;8.73;2.00;;;4.20;99.90;;;;;;5019527;28;20182;-80
2022/04/09 04:16:16;;;;;;;6.43;1.57;;;4.30;99.90;;;;;;5019639;28;20666;-81
2022/04/09 04:18:42;;;;;;;10.00;1.90;;;4.30;99.90;;;;;;5019514;28;20276;-82
2022/04/09 04:21:08;;;;;;;11.20;2.37;;;4.30;99.90;;;;;;5019620;28;20181;-81
2022/04/09 04:23:34;;;;;;;13.20;1.77;;;4.40;99.90;;;;;;5037357;28;20174;-80
2022/04/09 04:26:01;;;;;;;10.80;1.90;;;4.30;99.90;;;;;;5019768;28;20193;-81
2022/04/09 04:28:26;;;;;;;11.50;1.87;;;4.30;99.90;;;;;;5020168;28;20288;-80
2022/04/09 04:30:52;;;;;;;16.07;2.10;;;4.30;99.90;;;;;;5036630;28;20726;-80
2022/04/09 04:33:18;;;;;;;11.50;1.60;;;4.20;99.90;;;;;;5018837;28;20182;-81
2022/04/09 04:35:44;;;;;;;11.80;2.37;;;4.10;99.90;;;;;;5020307;28;20170;-79
2022/04/09 04:38:11;;;;;;;10.47;2.37;;;4.20;99.90;;;;;;5018856;28;20240;-80
2022/04/09 04:40:37;;;;;;;6.60;2.07;;;4.10;99.90;;;;;;5019307;28;20193;-80
2022/04/09 04:43:03;;;;;;;12.93;2.40;;;4.10;99.90;;;;;;5018951;28;20532;-80
2022/04/09 04:45:31;;;;;;;12.63;2.10;;;4.10;99.90;;;;;;5018550;28;20174;-80
2022/04/09 04:47:58;;;;;;;12.90;2.23;;;4.10;99.90;;;;;;5020082;28;20198;-81
2022/04/09 04:50:24;;;;;;;11.17;2.67;;;4.00;99.90;;;;;;5018918;28;20186;-81
2022/04/09 04:52:50;;;;;;;8.50;2.30;;;4.10;99.90;;;;;;5018718;28;20177;-81
2022/04/09 04:55:16;;;;;;;11.43;2.00;;;4.10;99.90;;;;;;5018535;28;20177;-81
2022/04/09 04:57:52;;;;;;;12.60;2.43;;;4.20;99.90;;;;;;5018633;28;20261;-80
2022/04/09 05:00:24;;;;;;;13.03;3.30;;;4.10;99.90;;;;;;5018215;28;20204;-80
2022/04/09 05:02:51;;;;;;;9.47;2.00;;;4.10;99.90;;;;;;5018615;28;20197;-81
2022/04/09 05:05:17;;;;;;;7.03;2.17;;;4.00;99.90;;;;;;5018797;28;20265;-80
2022/04/09 05:07:45;;;;;;;7.60;2.20;;;4.00;99.90;;;;;;5019712;28;20807;-81
2022/04/09 05:10:19;;;;;;;6.83;1.80;;;3.90;99.90;;;;;;5019748;28;20564;-80
2022/04/09 05:12:45;;;;;;;11.67;2.30;;;4.00;99.90;;;;;;5018747;28;20193;-80
2022/04/09 05:15:13;;;;;;;12.07;2.23;;;4.10;99.90;;;;;;5019347;28;20170;-80
2022/04/09 05:17:39;;;;;;;6.70;1.87;;;4.10;99.90;;;;;;5018356;28;20174;-80
2022/04/09 05:20:06;;;;;;;9.63;2.07;;;4.10;99.90;;;;;;5018450;28;20231;-80
2022/04/09 05:22:32;;;;;;;10.43;1.97;;;4.20;99.90;;;;;;5018680;28;20210;-80
2022/04/09 05:24:59;;;;;;;10.37;1.80;;;4.20;99.90;;;;;;5018632;28;20181;-80
2022/04/09 05:27:25;;;;;;;16.60;2.80;;;4.30;99.90;;;;;;5018100;28;20209;-80
2022/04/09 05:29:51;;;;;;;11.37;1.97;;;4.40;99.90;;;;;;5017811;28;20244;-80
2022/04/09 05:32:17;;;;;;;10.77;2.03;;;4.50;99.90;;;;;;5018643;28;20182;-81
2022/04/09 05:34:43;;;;;;;12.97;2.33;;;4.50;99.90;;;;;;5020027;28;20268;-79
2022/04/09 05:37:10;;;;;;;14.23;2.00;;;4.40;99.90;;;;;;5021729;28;20190;-79
2022/04/09 05:39:36;;;;;;;7.77;1.93;;;4.40;99.90;;;;;;5022777;28;20197;-80
2022/04/09 05:42:01;;;;;;;13.33;2.33;;;4.30;99.90;;;;;;5022542;28;20174;-79
2022/04/09 05:44:27;;;;;;;12.60;1.80;;;4.30;99.90;;;;;;5022817;28;20538;-80
2022/04/09 05:46:53;;;;;;;7.30;2.30;;;4.20;99.90;;;;;;5022226;28;20228;-79
2022/04/09 05:49:20;;;;;;;6.93;1.87;;;4.20;99.90;;;;;;5020621;28;20541;-80
2022/04/09 05:51:47;;;;;;;11.70;1.87;;;4.40;99.90;;;;;;5039338;28;20725;-78
2022/04/09 05:54:12;;;;;;;11.90;2.00;;;4.50;99.90;;;;;;5035074;28;20181;-80
2022/04/09 05:56:38;;;;;;;12.47;1.63;;;4.80;99.90;;;;;;5037021;28;20277;-78
2022/04/09 05:59:04;;;;;;;11.90;2.03;;;5.10;99.90;;;;;;5032061;28;20193;-80
2022/04/09 06:01:30;;;;;;;9.30;2.33;;;5.40;99.90;;;;;;5026283;28;20207;-79
2022/04/09 06:03:55;;;;;;;8.33;1.63;;;5.60;99.90;;;;;;5033899;28;20581;-79
2022/04/09 06:06:22;;;;;;;5.97;1.50;;;5.50;99.90;;;;;;5042247;28;20246;-79
2022/04/09 06:08:48;;;;;;;12.80;1.87;;;5.20;99.90;;;;;;5022155;28;20239;-80
2022/04/09 06:11:17;;;;;;;9.00;1.97;;;5.30;99.90;;;;;;5024431;28;20261;-79
2022/04/09 06:13:43;;;;;;;8.00;1.40;;;5.60;99.90;;;;;;5024434;28;20171;-79
2022/04/09 06:16:09;;;;;;;9.33;2.00;;;5.70;99.90;;;;;;5025972;28;20632;-79
2022/04/09 06:18:38;;;;;;;8.93;1.70;;;5.80;99.90;;;;;;5027725;28;20284;-80
2022/04/09 06:21:08;;;;;;;7.60;1.50;;;6.30;99.90;;;;;;5031532;28;20442;-78
2022/04/09 06:23:35;;;;;;;5.77;1.50;;;6.20;99.90;;;;;;5033961;28;20175;-79
2022/04/09 06:26:00;;;;;;;4.57;1.30;;;6.00;99.90;;;;;;5034719;28;20184;-80
2022/04/09 06:28:26;;;;;;;5.13;1.30;;;6.10;99.90;;;;;;5034276;28;20630;-79
2022/04/09 06:30:53;;;;;;;6.77;1.30;;;5.90;99.90;;;;;;5034327;28;20190;-79
2022/04/09 06:33:20;;;;;;;6.33;1.40;;;5.90;99.90;;;;;;5034780;28;20174;-78
2022/04/09 06:35:48;;;;;;;3.77;1.33;;;5.90;99.90;;;;;;5034703;28;20645;-81
2022/04/09 06:38:14;;;;;;;2.57;1.00;;;5.20;99.90;;;;;;5035004;28;20667;-80
2022/04/09 06:40:39;;;;;;;6.23;1.20;;;4.70;99.90;;;;;;5037915;28;20196;-79
2022/04/09 06:43:06;;;;;;;1.37;0.80;;;4.80;99.90;;;;;;5045452;28;20185;-80
2022/04/09 06:45:31;;;;;;;6.43;1.10;;;5.00;99.90;;;;;;5036941;28;20173;-79
2022/04/09 06:47:57;;;;;;;3.20;1.40;;;4.90;99.90;;;;;;5044257;28;20696;-79
2022/04/09 06:50:23;;;;;;;6.37;1.07;;;4.90;99.90;;;;;;5051082;28;20200;-80
2022/04/09 06:52:48;;;;;;;4.30;1.30;;;4.80;99.90;;;;;;5034548;28;20166;-80
2022/04/09 06:55:14;;;;;;;4.07;1.43;;;4.70;99.90;;;;;;5035250;28;20182;-82
2022/04/09 06:57:44;;;;;;;1.50;1.23;;;4.60;99.90;;;;;;5035181;28;20180;-80
2022/04/09 07:00:12;;;;;;;6.03;1.47;;;4.70;99.90;;;;;;5037042;28;20280;-79
2022/04/09 07:02:38;;;;;;;5.10;1.67;;;4.60;99.90;;;;;;5040570;28;20260;-81
2022/04/09 07:05:05;;;;;;;3.50;1.50;;;4.60;99.90;;;;;;5035133;28;20646;-80
2022/04/09 07:07:31;;;;;;;3.97;1.60;;;4.70;99.90;;;;;;5043635;28;20275;-80
2022/04/09 07:10:17;;;;;;;9.97;1.70;;;4.60;99.90;;;;;;5040427;28;20205;-79
2022/04/09 07:12:43;;;;;;;10.43;1.67;;;4.60;99.90;;;;;;5018723;28;20235;-80
2022/04/09 07:15:09;;;;;;;9.10;1.80;;;4.80;99.90;;;;;;5034704;28;20179;-80
2022/04/09 07:17:36;;;;;;;10.00;2.00;;;4.80;99.90;;;;;;5038377;28;20174;-80
2022/04/09 07:20:07;;;;;;;7.23;1.77;;;4.80;99.90;;;;;;5040313;28;20724;-80
2022/04/09 07:22:34;;;;;;;14.10;2.33;;;4.80;99.90;;;;;;5038246;28;20861;-80
2022/04/09 07:25:00;;;;;;;9.37;2.07;;;4.90;99.90;;;;;;5042098;28;20661;-81
2022/04/09 07:27:42;;;;;;;7.80;2.13;;;4.90;99.90;;;;;;5036360;28;20193;-81
2022/04/09 07:30:19;;;;;;;8.97;2.23;;;5.10;99.90;;;;;;5037920;28;20202;-81
2022/04/09 07:32:46;;;;;;;8.77;2.17;;;5.40;99.90;;;;;;5040871;28;20180;-80
2022/04/09 07:35:13;;;;;;;12.23;2.00;;;5.80;99.90;;;;;;5021740;28;20182;-80
2022/04/09 07:37:54;;;;;;;7.17;2.20;;;5.70;99.90;;;;;;5039435;28;20174;-79
2022/04/09 07:40:20;;;;;;;9.17;1.67;;;5.70;99.90;;;;;;5038307;28;20290;-80
2022/04/09 07:42:47;;;;;;;8.53;1.83;;;5.70;99.90;;;;;;5043448;28;20177;-80
2022/04/09 07:45:14;;;;;;;8.13;2.00;;;5.60;99.90;;;;;;5058171;28;20307;-80
2022/04/09 07:47:41;;;;;;;10.97;2.47;;;5.70;99.90;;;;;;5053472;28;20197;-80
2022/04/09 07:50:10;;;;;;;12.73;2.37;;;6.10;99.90;;;;;;5038599;28;20190;-81
2022/04/09 07:52:40;;;;;;;8.40;2.30;;;6.60;99.90;;;;;;5039290;28;20242;-80
2022/04/09 07:55:07;;;;;;;19.57;2.97;;;6.30;99.90;;;;;;5028107;28;20170;-80
2022/04/09 07:57:33;;;;;;;13.07;2.30;;;6.20;99.90;;;;;;5038490;28;20669;-80
2022/04/09 07:59:59;;;;;;;8.20;2.37;;;6.00;99.90;;;;;;5052074;28;20200;-81
2022/04/09 08:02:25;;;;;;;12.80;2.80;;;5.90;99.90;;;;;;5058380;28;20763;-81
2022/04/09 08:04:51;;;;;;;12.03;2.20;;;5.80;99.90;;;;;;5057591;28;20681;-81
2022/04/09 08:07:17;;;;;;;15.07;2.70;;;5.70;99.90;;;;;;5049365;28;20228;-81
2022/04/09 08:09:46;;;;;;;8.63;2.10;;;6.00;99.90;;;;;;5039530;28;20201;-82
2022/04/09 08:12:15;;;;;;;7.77;1.80;;;7.00;99.90;;;;;;5046506;28;20645;-81
2022/04/09 08:14:42;;;;;;;7.80;2.17;;;7.70;99.90;;;;;;5042164;28;20181;-81
2022/04/09 08:17:08;;;;;;;5.67;1.50;;;8.20;99.90;;;;;;5040979;28;20275;-81
2022/04/09 08:19:34;;;;;;;9.23;1.90;;;8.20;99.90;;;;;;5045453;28;20213;-81
2022/04/09 08:22:04;;;;;;;5.43;1.30;;;8.50;99.90;;;;;;5040126;28;20187;-80
2022/04/09 08:24:30;;;;;;;5.30;1.80;;;8.80;99.90;;;;;;5042948;28;20180;-83
2022/04/09 08:26:56;;;;;;;8.77;1.63;;;9.60;99.90;;;;;;5039438;28;20194;-80
2022/04/09 08:29:23;;;;;;;6.07;1.43;;;9.60;99.90;;;;;;5038649;28;20254;-82
2022/04/09 08:31:48;;;;;;;5.43;1.70;;;9.20;99.90;;;;;;5036984;28;20538;-82
2022/04/09 08:34:15;;;;;;;8.33;1.70;;;9.30;99.90;;;;;;5038738;28;20217;-81
2022/04/09 08:36:41;;;;;;;10.13;1.80;;;9.80;99.90;;;;;;5046324;28;20214;-81
2022/04/09 08:39:07;;;;;;;7.93;1.77;;;9.70;99.90;;;;;;5045639;28;20554;-81
2022/04/09 08:41:36;;;;;;;4.77;1.43;;;9.10;99.90;;;;;;5036708;28;20195;-79
2022/04/09 08:44:02;;;;;;;4.93;1.60;;;9.30;99.90;;;;;;5032621;28;20297;-81
2022/04/09 08:46:29;;;;;;;9.67;1.37;;;9.40;99.90;;;;;;5039789;28;20197;-82
2022/04/09 08:48:58;;;;;;;2.43;1.30;;;8.90;99.90;;;;;;5051074;28;20666;-80
2022/04/09 08:51:25;;;;;;;5.30;1.37;;;8.20;99.90;;;;;;5040838;28;20276;-81
2022/04/09 08:53:52;;;;;;;6.67;1.90;;;7.40;99.90;;;;;;5040484;28;20208;-81
2022/04/09 08:56:18;;;;;;;5.27;1.50;;;7.20;99.90;;;;;;5035318;28;20178;-80
2022/04/09 08:58:44;;;;;;;4.50;1.40;;;6.40;99.90;;;;;;5054391;28;20194;-81
2022/04/09 09:01:10;;;;;;;4.93;1.30;;;6.50;99.90;;;;;;5041227;28;20189;-80
2022/04/09 09:03:36;;;;;;;10.47;1.63;;;6.50;99.90;;;;;;5055200;28;20223;-80
2022/04/09 09:06:32;;;;;;;12.00;1.70;;;6.70;99.90;;;;;;5037019;28;20583;-80
2022/04/09 09:08:59;;;;;;;8.47;1.70;;;7.90;99.90;;;;;;5036891;28;20230;-80
2022/04/09 09:11:28;;;;;;;6.10;1.73;;;8.60;99.90;;;;;;5036464;28;20661;-80
2022/04/09 09:13:58;;;;;;;6.20;1.93;;;9.30;99.90;;;;;;5024004;28;20182;-80
2022/04/09 09:16:29;;;;;;;12.70;1.63;;;9.60;99.90;;;;;;5017528;28;20206;-80
2022/04/09 09:19:06;;;;;;;5.03;1.30;;;10.00;99.90;;;;;;5016255;28;20288;-80
2022/04/09 09:21:32;;;;;;;5.70;1.43;;;10.30;99.90;;;;;;5017016;28;20187;-80
2022/04/09 09:24:07;;;;;;;5.10;1.37;;;11.10;99.90;;;;;;5031060;28;20561;-80
2022/04/09 09:26:38;;;;;;;2.13;1.37;;;10.60;99.90;;;;;;5052554;28;20192;-80
2022/04/09 09:29:04;;;;;;;8.03;1.30;;;9.80;99.90;;;;;;5033254;28;20245;-79
2022/04/09 09:31:45;;;;;;;5.47;1.10;;;10.00;99.90;;;;;;5032928;28;20200;-80
2022/04/09 09:34:12;;;;;;;8.23;1.30;;;10.20;99.90;;;;;;5032712;28;20170;-81
2022/04/09 09:36:40;;;;;;;6.13;1.40;;;9.60;99.90;;;;;;5033950;28;20541;-80
2022/04/09 09:39:07;;;;;;;5.13;1.17;;;9.50;99.90;;;;;;5034515;28;20664;-80
2022/04/09 09:41:33;;;;;;;3.20;0.97;;;9.20;99.90;;;;;;5035171;28;20175;-79
2022/04/09 09:44:03;;;;;;;5.73;1.40;;;8.00;99.90;;;;;;5035174;28;20170;-80
2022/04/09 09:46:29;;;;;;;4.53;1.00;;;7.80;99.90;;;;;;5034598;28;20211;-81
2022/04/09 09:48:55;;;;;;;2.33;1.27;;;9.00;99.90;;;;;;5034656;28;20182;-81
2022/04/09 09:51:25;;;;;;;3.63;1.10;;;9.90;99.90;;;;;;5033881;28;20176;-80
2022/04/09 09:54:05;;;;;;;3.63;0.93;;;9.60;99.90;;;;;;5034293;28;20690;-81
2022/04/09 09:56:41;;;;;;;8.00;1.37;;;9.40;99.90;;;;;;5035134;28;20652;-82
2022/04/09 09:59:08;;;;;;;5.13;1.40;;;9.00;99.90;;;;;;5042962;28;20195;-83
2022/04/09 10:01:39;;;;;;;7.90;1.57;;;9.10;99.90;;;;;;5030657;28;20182;-80
2022/04/09 10:04:06;;;;;;;3.83;1.50;;;8.80;99.90;;;;;;5033759;28;20676;-81
2022/04/09 10:06:35;;;;;;;2.73;1.13;;;8.40;99.90;;;;;;5035996;28;20280;-83
2022/04/09 10:09:05;;;;;;;1.70;0.83;;;8.20;99.90;;;;;;5035963;28;20542;-80
2022/04/09 10:11:35;;;;;;;1.23;0.80;;;8.00;99.90;;;;;;5035673;28;20187;-80
2022/04/09 10:14:01;;;;;;;5.43;1.07;;;8.30;99.90;;;;;;5035618;28;20181;-81
2022/04/09 10:16:29;;;;;;;3.43;0.93;;;9.40;99.90;;;;;;5038358;28;20185;-79
2022/04/09 10:19:00;;;;;;;1.30;0.80;;;10.00;99.90;;;;;;5037070;28;20199;-80
2022/04/09 10:21:28;;;;;;;2.93;1.00;;;10.20;99.90;;;;;;5038458;28;20179;-80
2022/04/09 10:23:57;;;;;;;1.57;1.30;;;10.30;99.90;;;;;;5037044;28;20223;-80
2022/04/09 10:26:24;;;;;;;2.63;1.13;;;10.70;99.90;;;;;;5040299;28;20279;-80
2022/04/09 10:28:51;;;;;;;2.37;0.83;;;11.00;99.90;;;;;;5039386;28;20287;-80
2022/04/09 10:31:37;;;;;;;3.50;1.10;;;11.60;99.90;;;;;;5039672;28;20264;-80
2022/04/09 10:34:07;;;;;;;1.50;1.10;;;11.30;99.90;;;;;;5038327;28;20254;-80
2022/04/09 10:36:45;;;;;;;4.93;1.50;;;11.10;99.90;;;;;;5037704;28;20253;-81
2022/04/09 10:39:40;;;;;;;2.33;1.10;;;11.50;99.90;;;;;;5036478;28;20735;-81
2022/04/09 10:42:07;;;;;;;4.30;1.57;;;11.60;99.90;;;;;;5038327;28;20182;-81
2022/04/09 10:44:51;;;;;;;7.13;1.20;;;10.80;99.90;;;;;;5041950;28;20178;-81
2022/04/09 10:47:18;;;;;;;2.17;1.00;;;9.60;99.90;;;;;;5040942;28;20198;-81
2022/04/09 10:50:02;;;;;;;1.50;0.80;;;8.90;99.90;;;;;;5040123;28;20243;-81
2022/04/09 10:52:29;;;;;;;2.17;1.00;;;8.40;99.90;;;;;;5040035;28;20188;-82
2022/04/09 10:55:10;;;;;;;2.57;1.10;;;7.50;99.90;;;;;;5041983;28;20188;-82
2022/04/09 10:57:42;;;;;;;3.17;0.80;;;7.10;99.90;;;;;;5042063;28;20208;-81
2022/04/09 11:00:29;;;;;;;2.97;1.07;;;7.80;99.90;;;;;;5043184;28;20194;-81
2022/04/09 11:03:14;;;;;;;6.93;1.07;;;9.10;99.90;;;;;;5045137;28;20177;-81
2022/04/09 11:05:41;;;;;;;3.77;1.00;;;9.00;99.90;;;;;;5044821;28;20174;-82
2022/04/09 11:08:08;;;;;;;1.40;1.00;;;9.40;99.90;;;;;;5045298;28;20203;-80
2022/04/09 11:10:35;;;;;;;4.33;1.00;;;9.80;99.90;;;;;;5042057;28;20199;-81
2022/04/09 11:13:01;;;;;;;2.80;0.97;;;10.00;99.90;;;;;;5044415;28;20183;-81
2022/04/09 11:15:28;;;;;;;3.40;1.17;;;10.20;99.90;;;;;;5043528;28;20197;-81
2022/04/09 11:18:02;;;;;;;4.27;1.10;;;10.20;99.90;;;;;;5043418;28;20181;-83
2022/04/09 11:20:33;;;;;;;4.97;1.20;;;11.30;99.90;;;;;;5042938;28;20209;-81
2022/04/09 11:23:20;;;;;;;2.50;1.30;;;12.00;99.90;;;;;;5041704;28;20188;-83
2022/04/09 11:25:46;;;;;;;5.27;1.67;;;11.50;99.90;;;;;;5041934;28;20174;-80
2022/04/09 11:28:20;;;;;;;6.03;1.50;;;11.50;99.90;;;;;;5040844;28;20305;-84
2022/04/09 11:31:02;;;;;;;4.90;1.53;;;11.20;99.90;;;;;;5040618;28;20238;-81
2022/04/09 11:33:29;;;;;;;3.57;1.13;;;10.50;99.90;;;;;;5043373;28;20633;-82
2022/04/09 11:35:55;;;;;;;1.40;1.00;;;9.90;99.90;;;;;;5041142;28;20172;-81
2022/04/09 11:38:25;;;;;;;5.93;1.10;;;10.50;99.90;;;;;;5040125;28;20215;-82
2022/04/09 11:40:50;;;;;;;3.20;1.27;;;10.40;99.90;;;;;;5057169;28;20193;-81
2022/04/09 11:43:18;;;;;;;4.13;0.93;;;9.60;99.90;;;;;;5043522;28;20191;-82
2022/04/09 11:45:44;;;;;;;4.27;1.17;;;9.10;99.90;;;;;;5042940;28;20184;-81
2022/04/09 11:48:17;;;;;;;3.10;1.00;;;9.00;99.90;;;;;;5041979;28;20323;-82
2022/04/09 11:50:44;;;;;;;2.60;1.10;;;9.00;99.90;;;;;;5042603;28;20197;-81
2022/04/09 11:53:12;;;;;;;1.77;1.07;;;8.70;99.90;;;;;;5042340;28;20182;-81
2022/04/09 11:55:40;;;;;;;2.93;0.80;;;8.50;99.90;;;;;;5042158;28;20181;-81
2022/04/09 11:58:06;;;;;;;3.70;1.00;;;8.50;99.90;;;;;;5042409;28;20182;-82
2022/04/09 12:00:35;;;;;;;4.67;1.07;;;8.30;99.90;;;;;;5041982;28;20204;-81
2022/04/09 12:03:03;;;;;;;3.07;1.27;;;8.00;99.90;;;;;;5041430;28;20256;-81
2022/04/09 12:05:39;;;;;;;3.43;1.27;;;9.10;99.90;;;;;;5041727;28;20178;-80
2022/04/09 12:08:14;;;;;;;3.20;1.07;;;10.50;99.90;;;;;;5040985;28;20208;-79
2022/04/09 12:10:57;;;;;;;0.73;0.50;;;9.20;99.90;;;;;;5040000;28;20192;-80
2022/04/09 12:13:37;;;;;;;1.77;0.80;;;8.20;99.90;;;;;;5040625;28;20211;-82
2022/04/09 12:16:18;;;;;;;2.83;0.83;;;7.60;99.90;;;;;;5041164;28;20192;-80
2022/04/09 12:18:45;;;;;;;4.00;0.80;;;7.40;99.90;;;;;;5041792;28;20266;-80
2022/04/09 12:21:22;;;;;;;4.73;0.60;;;7.10;99.90;;;;;;5040389;28;20599;-82
2022/04/09 12:24:02;;;;;;;2.67;0.83;;;7.00;99.90;;;;;;5041466;28;20181;-82
2022/04/09 12:26:28;;;;;;;0.80;0.77;;;6.90;99.90;;;;;;5041214;28;20193;-84
2022/04/09 12:29:22;;;;;;;1.23;0.60;;;7.00;99.90;;;;;;5040664;28;20184;-80
2022/04/09 12:31:51;;;;;;;0.97;0.90;;;7.40;99.90;;;;;;5041513;28;20178;-83
2022/04/09 12:34:20;;;;;;;3.27;0.70;;;7.90;99.90;;;;;;5041010;28;20174;-82
2022/04/09 12:37:05;;;;;;;0.73;0.60;;;8.50;99.90;;;;;;5040592;28;20224;-82
2022/04/09 12:39:37;;;;;;;0.50;0.50;;;9.00;99.90;;;;;;5039993;28;20189;-83
2022/04/09 12:42:06;;;;;;;0.70;0.70;;;8.90;99.90;;;;;;5040927;28;20193;-83
2022/04/09 12:44:34;;;;;;;0.90;0.50;;;9.10;99.90;;;;;;5040943;28;20227;-82
2022/04/09 12:47:01;;;;;;;2.87;0.50;;;9.50;99.90;;;;;;5040965;28;20288;-83
2022/04/09 12:49:30;;;;;;;1.80;0.87;;;9.20;99.90;;;;;;5039169;28;20592;-82
2022/04/09 12:51:57;;;;;;;1.00;1.00;;;8.90;99.90;;;;;;5040710;28;20268;-82
2022/04/09 12:54:23;;;;;;;1.40;0.80;;;8.70;99.90;;;;;;5040874;28;20192;-82
2022/04/09 12:56:49;;;;;;;0.93;0.80;;;8.30;99.90;;;;;;5041743;28;20544;-83
2022/04/09 12:59:15;;;;;;;0.80;0.80;;;8.10;99.90;;;;;;5041580;28;20247;-82
2022/04/09 13:01:41;;;;;;;3.73;1.40;;;7.90;99.90;;;;;;5039313;28;20189;-83